F/v.oceane — FHDQ — position and weather

sailwx.info

Track history (hours):
 
Tides and Currents Weather Stations Pressure Air Temp Water Temp Dewpoint Dewpoint Depression Visibility Wind Speed Wind Dir Waves Ship Positions

F/v.oceane

Last reported at 2017-Nov-24 00:00 UTC. Time now 2017-Nov-24 00:21 UTC.
Position N 48°33' W 004°60'.

Length 18 m; draft 3.2 m.

Type: Fishing. MMSI: 228827000.

Date/timePositionNaut miles runAvg speedWind from/ knotsBaromVisibWave heightAir tempDewpointWater temp
2017-Nov-24 00:00N 48°33' W 004°60'510.5
2017-Nov-23 23:30N 48°35' W 004°53'510.4
2017-Nov-23 23:00N 48°38' W 004°46'510.2
2017-Nov-23 22:30N 48°40' W 004°39'5 9.8
2017-Nov-23 21:59N 48°42' W 004°32'5 9.5
2017-Nov-23 21:30N 48°42' W 004°25'5 9.0
2017-Nov-23 21:00N 48°43' W 004°18'  
2017-Nov-18 00:11N 48°47' W 004°00'6 8.1
2017-Nov-17 23:23N 48°46' W 004°10'3 7.2
2017-Nov-17 22:59N 48°45' W 004°14'4 7.0
2017-Nov-17 22:28N 48°44' W 004°19'3 6.7
2017-Nov-17 22:00N 48°43' W 004°24'3 6.5
2017-Nov-17 21:30N 48°42' W 004°29'3 6.0
2017-Nov-17 20:59N 48°41' W 004°33'3 5.9
2017-Nov-17 20:30N 48°40' W 004°37'3 6.0
2017-Nov-17 20:00N 48°39' W 004°41'3 6.1
2017-Nov-17 19:30N 48°38' W 004°45'3 6.2
2017-Nov-17 19:00N 48°36' W 004°50'4 7.0
2017-Nov-17 18:30N 48°35' W 004°54'4 7.4
2017-Nov-17 18:00N 48°33' W 004°59'4 8.3
2017-Nov-17 17:30N 48°31' W 005°05'4 8.3
2017-Nov-17 17:00N 48°29' W 005°11'5 9.1
2017-Nov-17 16:30N 48°26' W 005°16'5 9.4
2017-Nov-17 16:00N 48°23' W 005°21'7 9.8
2017-Nov-17 15:18N 48°19' W 005°29'67 2.1
2017-Nov-16 07:47N 47°32' W 006°40'10 7.6
2017-Nov-16 06:28N 47°40' W 006°31'8 2.2
2017-Nov-16 03:00N 47°33' W 006°36'4 3.6
2017-Nov-16 01:59N 47°32' W 006°31'1 2.7
2017-Nov-16 01:29N 47°33' W 006°32'3 4.2
2017-Nov-16 00:46N 47°36' W 006°34'1 1.0
2017-Nov-15 23:26N 47°36' W 006°35'0 0.1
2017-Nov-15 21:57N 47°36' W 006°35'0 0.1
2017-Nov-15 21:03N 47°36' W 006°35'2 1.0
2017-Nov-15 19:29N 47°37' W 006°34'1 0.9
2017-Nov-15 18:50N 47°38' W 006°34'2 1.1
2017-Nov-15 16:51N 47°38' W 006°31'  
Track history (hours):
 
Tides and Currents Weather Stations Pressure Air Temp Water Temp Dewpoint Dewpoint Depression Visibility Wind Speed Wind Dir Waves Ship Positions

F/v.oceane

Last reported at 2017-Nov-24 00:00 UTC. Time now 2017-Nov-24 00:21 UTC.
Position N 48°33' W 004°60'.

Length 18 m; draft 3.2 m.

Type: Fishing. MMSI: 228827000.

Date/timePositionNaut miles runAvg speedWind from/ knotsBaromVisibWave heightAir tempDewpointWater temp
2017-Nov-24 00:00N 48°33' W 004°60'510.5
2017-Nov-23 23:30N 48°35' W 004°53'510.4
2017-Nov-23 23:00N 48°38' W 004°46'510.2
2017-Nov-23 22:30N 48°40' W 004°39'5 9.8
2017-Nov-23 21:59N 48°42' W 004°32'5 9.5
2017-Nov-23 21:30N 48°42' W 004°25'5 9.0
2017-Nov-23 21:00N 48°43' W 004°18'  
2017-Nov-18 00:11N 48°47' W 004°00'6 8.1
2017-Nov-17 23:23N 48°46' W 004°10'3 7.2
2017-Nov-17 22:59N 48°45' W 004°14'4 7.0
2017-Nov-17 22:28N 48°44' W 004°19'3 6.7
2017-Nov-17 22:00N 48°43' W 004°24'3 6.5
2017-Nov-17 21:30N 48°42' W 004°29'3 6.0
2017-Nov-17 20:59N 48°41' W 004°33'3 5.9
2017-Nov-17 20:30N 48°40' W 004°37'3 6.0
2017-Nov-17 20:00N 48°39' W 004°41'3 6.1
2017-Nov-17 19:30N 48°38' W 004°45'3 6.2
2017-Nov-17 19:00N 48°36' W 004°50'4 7.0
2017-Nov-17 18:30N 48°35' W 004°54'4 7.4
2017-Nov-17 18:00N 48°33' W 004°59'4 8.3
2017-Nov-17 17:30N 48°31' W 005°05'4 8.3
2017-Nov-17 17:00N 48°29' W 005°11'5 9.1
2017-Nov-17 16:30N 48°26' W 005°16'5 9.4
2017-Nov-17 16:00N 48°23' W 005°21'7 9.8
2017-Nov-17 15:18N 48°19' W 005°29'67 2.1
2017-Nov-16 07:47N 47°32' W 006°40'10 7.6
2017-Nov-16 06:28N 47°40' W 006°31'8 2.2
2017-Nov-16 03:00N 47°33' W 006°36'4 3.6
2017-Nov-16 01:59N 47°32' W 006°31'1 2.7
2017-Nov-16 01:29N 47°33' W 006°32'3 4.2
2017-Nov-16 00:46N 47°36' W 006°34'1 1.0
2017-Nov-15 23:26N 47°36' W 006°35'0 0.1
2017-Nov-15 21:57N 47°36' W 006°35'0 0.1
2017-Nov-15 21:03N 47°36' W 006°35'2 1.0
2017-Nov-15 19:29N 47°37' W 006°34'1 0.9
2017-Nov-15 18:50N 47°38' W 006°34'2 1.1
2017-Nov-15 16:51N 47°38' W 006°31'  

Dump ship's entire track history